sensor_id;sensor_type;location;lat;lon;timestamp;pressure;altitude;pressure_sealevel;temperature
73937;BMP180;59249;59.736;30.568;2023-11-22T00:01:41;101944.00;;;-5.70
73937;BMP180;59249;59.736;30.568;2023-11-22T00:04:10;101947.00;;;-5.70
73937;BMP180;59249;59.736;30.568;2023-11-22T00:06:38;101938.00;;;-5.70
73937;BMP180;59249;59.736;30.568;2023-11-22T00:09:08;101930.00;;;-5.60
73937;BMP180;59249;59.736;30.568;2023-11-22T00:11:37;101935.00;;;-5.70
73937;BMP180;59249;59.736;30.568;2023-11-22T00:14:07;101939.00;;;-5.70
73937;BMP180;59249;59.736;30.568;2023-11-22T00:16:36;101940.00;;;-5.60
73937;BMP180;59249;59.736;30.568;2023-11-22T00:19:07;101941.00;;;-5.70
73937;BMP180;59249;59.736;30.568;2023-11-22T00:21:36;101938.00;;;-5.70
73937;BMP180;59249;59.736;30.568;2023-11-22T00:24:06;101928.00;;;-5.80
73937;BMP180;59249;59.736;30.568;2023-11-22T00:26:35;101924.00;;;-5.80
73937;BMP180;59249;59.736;30.568;2023-11-22T00:29:03;101924.00;;;-6.00
73937;BMP180;59249;59.736;30.568;2023-11-22T00:31:33;101909.00;;;-6.10
73937;BMP180;59249;59.736;30.568;2023-11-22T00:34:02;101916.00;;;-6.10
73937;BMP180;59249;59.736;30.568;2023-11-22T00:36:31;101902.00;;;-6.20
73937;BMP180;59249;59.736;30.568;2023-11-22T00:39:00;101905.00;;;-6.20
73937;BMP180;59249;59.736;30.568;2023-11-22T00:41:30;101900.00;;;-6.30
73937;BMP180;59249;59.736;30.568;2023-11-22T00:43:59;101904.00;;;-6.30
73937;BMP180;59249;59.736;30.568;2023-11-22T00:46:28;101902.00;;;-6.40
73937;BMP180;59249;59.736;30.568;2023-11-22T00:48:59;101908.00;;;-6.40
73937;BMP180;59249;59.736;30.568;2023-11-22T00:51:33;101898.00;;;-6.50
73937;BMP180;59249;59.736;30.568;2023-11-22T00:54:16;101899.00;;;-6.60
73937;BMP180;59249;59.736;30.568;2023-11-22T00:56:46;101905.00;;;-6.60
73937;BMP180;59249;59.736;30.568;2023-11-22T00:59:14;101903.00;;;-6.60
73937;BMP180;59249;59.736;30.568;2023-11-22T01:01:44;101901.00;;;-6.60
73937;BMP180;59249;59.736;30.568;2023-11-22T01:04:15;101895.00;;;-6.60
73937;BMP180;59249;59.736;30.568;2023-11-22T01:06:43;101897.00;;;-6.60
73937;BMP180;59249;59.736;30.568;2023-11-22T01:09:12;101893.00;;;-6.60
73937;BMP180;59249;59.736;30.568;2023-11-22T01:11:43;101889.00;;;-6.60
73937;BMP180;59249;59.736;30.568;2023-11-22T01:14:12;101897.00;;;-6.50
73937;BMP180;59249;59.736;30.568;2023-11-22T01:16:41;101891.00;;;-6.60
73937;BMP180;59249;59.736;30.568;2023-11-22T01:19:10;101890.00;;;-6.50
73937;BMP180;59249;59.736;30.568;2023-11-22T01:21:41;101897.00;;;-6.50
73937;BMP180;59249;59.736;30.568;2023-11-22T01:24:10;101892.00;;;-6.50
73937;BMP180;59249;59.736;30.568;2023-11-22T01:26:39;101885.00;;;-6.50
73937;BMP180;59249;59.736;30.568;2023-11-22T01:29:08;101883.00;;;-6.50
73937;BMP180;59249;59.736;30.568;2023-11-22T01:31:39;101880.00;;;-6.40
73937;BMP180;59249;59.736;30.568;2023-11-22T01:34:09;101891.00;;;-6.40
73937;BMP180;59249;59.736;30.568;2023-11-22T01:36:43;101905.00;;;-6.40
73937;BMP180;59249;59.736;30.568;2023-11-22T01:39:12;101898.00;;;-6.40
73937;BMP180;59249;59.736;30.568;2023-11-22T01:41:44;101895.00;;;-6.30
73937;BMP180;59249;59.736;30.568;2023-11-22T01:44:13;101884.00;;;-6.40
73937;BMP180;59249;59.736;30.568;2023-11-22T01:46:42;101888.00;;;-6.30
73937;BMP180;59249;59.736;30.568;2023-11-22T01:49:11;101884.00;;;-6.30
73937;BMP180;59249;59.736;30.568;2023-11-22T01:51:41;101885.00;;;-6.30
73937;BMP180;59249;59.736;30.568;2023-11-22T01:54:12;101895.00;;;-6.30
73937;BMP180;59249;59.736;30.568;2023-11-22T01:56:41;101897.00;;;-6.20
73937;BMP180;59249;59.736;30.568;2023-11-22T01:59:09;101900.00;;;-6.20
73937;BMP180;59249;59.736;30.568;2023-11-22T02:01:38;101892.00;;;-6.30
73937;BMP180;59249;59.736;30.568;2023-11-22T02:04:07;101898.00;;;-6.30
73937;BMP180;59249;59.736;30.568;2023-11-22T02:06:37;101891.00;;;-6.30
73937;BMP180;59249;59.736;30.568;2023-11-22T02:09:07;101893.00;;;-6.20
73937;BMP180;59249;59.736;30.568;2023-11-22T02:11:40;101894.00;;;-6.30
73937;BMP180;59249;59.736;30.568;2023-11-22T02:14:12;101898.00;;;-6.40
73937;BMP180;59249;59.736;30.568;2023-11-22T02:16:42;101905.00;;;-6.50
73937;BMP180;59249;59.736;30.568;2023-11-22T02:19:14;101894.00;;;-6.50
73937;BMP180;59249;59.736;30.568;2023-11-22T02:21:44;101892.00;;;-6.60
73937;BMP180;59249;59.736;30.568;2023-11-22T02:24:14;101902.00;;;-6.60
73937;BMP180;59249;59.736;30.568;2023-11-22T02:26:44;101905.00;;;-6.60
73937;BMP180;59249;59.736;30.568;2023-11-22T02:29:14;101912.00;;;-6.60
73937;BMP180;59249;59.736;30.568;2023-11-22T02:31:43;101909.00;;;-6.60
73937;BMP180;59249;59.736;30.568;2023-11-22T02:34:12;101918.00;;;-6.50
73937;BMP180;59249;59.736;30.568;2023-11-22T02:36:43;101909.00;;;-6.50
73937;BMP180;59249;59.736;30.568;2023-11-22T02:39:32;101905.00;;;-6.50
73937;BMP180;59249;59.736;30.568;2023-11-22T02:42:09;101903.00;;;-6.40
73937;BMP180;59249;59.736;30.568;2023-11-22T02:44:37;101905.00;;;-6.30
73937;BMP180;59249;59.736;30.568;2023-11-22T02:47:07;101901.00;;;-6.30
73937;BMP180;59249;59.736;30.568;2023-11-22T02:49:37;101902.00;;;-6.30
73937;BMP180;59249;59.736;30.568;2023-11-22T02:52:06;101899.00;;;-6.30
73937;BMP180;59249;59.736;30.568;2023-11-22T02:54:36;101902.00;;;-6.40
73937;BMP180;59249;59.736;30.568;2023-11-22T02:57:05;101893.00;;;-6.50
73937;BMP180;59249;59.736;30.568;2023-11-22T02:59:34;101894.00;;;-6.50
73937;BMP180;59249;59.736;30.568;2023-11-22T03:02:03;101889.00;;;-6.70
73937;BMP180;59249;59.736;30.568;2023-11-22T03:04:32;101890.00;;;-6.80
73937;BMP180;59249;59.736;30.568;2023-11-22T03:07:01;101889.00;;;-6.70
73937;BMP180;59249;59.736;30.568;2023-11-22T03:09:30;101887.00;;;-6.80
73937;BMP180;59249;59.736;30.568;2023-11-22T03:12:00;101881.00;;;-6.90
73937;BMP180;59249;59.736;30.568;2023-11-22T03:14:29;101878.00;;;-6.90
73937;BMP180;59249;59.736;30.568;2023-11-22T03:16:58;101891.00;;;-7.00
73937;BMP180;59249;59.736;30.568;2023-11-22T03:19:27;101886.00;;;-6.90
73937;BMP180;59249;59.736;30.568;2023-11-22T03:21:56;101885.00;;;-6.90
73937;BMP180;59249;59.736;30.568;2023-11-22T03:24:25;101874.00;;;-7.00
73937;BMP180;59249;59.736;30.568;2023-11-22T03:26:55;101884.00;;;-7.00
73937;BMP180;59249;59.736;30.568;2023-11-22T03:29:27;101886.00;;;-7.00
73937;BMP180;59249;59.736;30.568;2023-11-22T03:31:56;101879.00;;;-6.90
73937;BMP180;59249;59.736;30.568;2023-11-22T03:34:25;101874.00;;;-6.90
73937;BMP180;59249;59.736;30.568;2023-11-22T03:36:54;101881.00;;;-6.90
73937;BMP180;59249;59.736;30.568;2023-11-22T03:39:22;101869.00;;;-6.90
73937;BMP180;59249;59.736;30.568;2023-11-22T03:41:51;101874.00;;;-6.90
73937;BMP180;59249;59.736;30.568;2023-11-22T03:44:20;101874.00;;;-6.80
73937;BMP180;59249;59.736;30.568;2023-11-22T03:46:51;101878.00;;;-6.80
73937;BMP180;59249;59.736;30.568;2023-11-22T03:49:20;101874.00;;;-6.70
73937;BMP180;59249;59.736;30.568;2023-11-22T03:51:48;101881.00;;;-6.70
73937;BMP180;59249;59.736;30.568;2023-11-22T03:54:17;101884.00;;;-6.80
73937;BMP180;59249;59.736;30.568;2023-11-22T03:56:46;101875.00;;;-6.80
73937;BMP180;59249;59.736;30.568;2023-11-22T03:59:15;101869.00;;;-6.80
73937;BMP180;59249;59.736;30.568;2023-11-22T04:01:44;101875.00;;;-6.80
73937;BMP180;59249;59.736;30.568;2023-11-22T04:04:14;101872.00;;;-6.80
73937;BMP180;59249;59.736;30.568;2023-11-22T04:06:43;101879.00;;;-6.80
73937;BMP180;59249;59.736;30.568;2023-11-22T04:09:12;101870.00;;;-6.80
73937;BMP180;59249;59.736;30.568;2023-11-22T04:11:41;101873.00;;;-6.80
73937;BMP180;59249;59.736;30.568;2023-11-22T04:14:09;101873.00;;;-6.80
73937;BMP180;59249;59.736;30.568;2023-11-22T04:16:39;101870.00;;;-6.80
73937;BMP180;59249;59.736;30.568;2023-11-22T04:19:08;101870.00;;;-6.70
73937;BMP180;59249;59.736;30.568;2023-11-22T04:21:39;101878.00;;;-6.70
73937;BMP180;59249;59.736;30.568;2023-11-22T04:24:08;101876.00;;;-6.70
73937;BMP180;59249;59.736;30.568;2023-11-22T04:26:38;101870.00;;;-6.60
73937;BMP180;59249;59.736;30.568;2023-11-22T04:29:07;101879.00;;;-6.60
73937;BMP180;59249;59.736;30.568;2023-11-22T04:31:36;101875.00;;;-6.70
73937;BMP180;59249;59.736;30.568;2023-11-22T04:34:05;101870.00;;;-6.70
73937;BMP180;59249;59.736;30.568;2023-11-22T04:36:34;101860.00;;;-6.80
73937;BMP180;59249;59.736;30.568;2023-11-22T04:39:04;101863.00;;;-6.70
73937;BMP180;59249;59.736;30.568;2023-11-22T04:41:34;101865.00;;;-6.70
73937;BMP180;59249;59.736;30.568;2023-11-22T04:44:03;101863.00;;;-6.80
73937;BMP180;59249;59.736;30.568;2023-11-22T04:46:32;101872.00;;;-6.80
73937;BMP180;59249;59.736;30.568;2023-11-22T04:49:02;101873.00;;;-6.70
73937;BMP180;59249;59.736;30.568;2023-11-22T04:51:30;101862.00;;;-6.70
73937;BMP180;59249;59.736;30.568;2023-11-22T04:53:59;101861.00;;;-6.70
73937;BMP180;59249;59.736;30.568;2023-11-22T04:56:30;101861.00;;;-6.70
73937;BMP180;59249;59.736;30.568;2023-11-22T04:58:58;101870.00;;;-6.60
73937;BMP180;59249;59.736;30.568;2023-11-22T05:01:31;101873.00;;;-6.70
73937;BMP180;59249;59.736;30.568;2023-11-22T05:04:01;101862.00;;;-6.60
73937;BMP180;59249;59.736;30.568;2023-11-22T05:06:30;101870.00;;;-6.60
73937;BMP180;59249;59.736;30.568;2023-11-22T05:08:59;101854.00;;;-6.50
73937;BMP180;59249;59.736;30.568;2023-11-22T05:11:29;101871.00;;;-6.50
73937;BMP180;59249;59.736;30.568;2023-11-22T05:13:58;101852.00;;;-6.40
73937;BMP180;59249;59.736;30.568;2023-11-22T05:16:27;101872.00;;;-6.40
73937;BMP180;59249;59.736;30.568;2023-11-22T05:18:56;101859.00;;;-6.30
73937;BMP180;59249;59.736;30.568;2023-11-22T05:21:24;101864.00;;;-6.40
73937;BMP180;59249;59.736;30.568;2023-11-22T05:23:53;101870.00;;;-6.30
73937;BMP180;59249;59.736;30.568;2023-11-22T05:26:22;101864.00;;;-6.30
73937;BMP180;59249;59.736;30.568;2023-11-22T05:28:53;101855.00;;;-6.30
73937;BMP180;59249;59.736;30.568;2023-11-22T05:31:21;101870.00;;;-6.30
73937;BMP180;59249;59.736;30.568;2023-11-22T05:33:51;101863.00;;;-6.20
73937;BMP180;59249;59.736;30.568;2023-11-22T05:36:20;101863.00;;;-6.10
73937;BMP180;59249;59.736;30.568;2023-11-22T05:38:48;101860.00;;;-6.00
73937;BMP180;59249;59.736;30.568;2023-11-22T05:41:17;101871.00;;;-6.00
73937;BMP180;59249;59.736;30.568;2023-11-22T05:43:46;101857.00;;;-5.90
73937;BMP180;59249;59.736;30.568;2023-11-22T05:46:16;101859.00;;;-5.80
73937;BMP180;59249;59.736;30.568;2023-11-22T05:48:48;101870.00;;;-5.70
73937;BMP180;59249;59.736;30.568;2023-11-22T05:51:18;101870.00;;;-5.50
73937;BMP180;59249;59.736;30.568;2023-11-22T05:53:47;101879.00;;;-5.60
73937;BMP180;59249;59.736;30.568;2023-11-22T05:56:16;101886.00;;;-5.50
73937;BMP180;59249;59.736;30.568;2023-11-22T05:58:46;101872.00;;;-5.50
73937;BMP180;59249;59.736;30.568;2023-11-22T06:01:16;101878.00;;;-5.50
73937;BMP180;59249;59.736;30.568;2023-11-22T06:03:45;101885.00;;;-5.40
73937;BMP180;59249;59.736;30.568;2023-11-22T06:06:15;101873.00;;;-5.40
73937;BMP180;59249;59.736;30.568;2023-11-22T06:08:45;101880.00;;;-5.30
73937;BMP180;59249;59.736;30.568;2023-11-22T06:11:14;101871.00;;;-5.30
73937;BMP180;59249;59.736;30.568;2023-11-22T06:13:43;101862.00;;;-5.30
73937;BMP180;59249;59.736;30.568;2023-11-22T06:16:13;101870.00;;;-5.20
73937;BMP180;59249;59.736;30.568;2023-11-22T06:18:43;101874.00;;;-5.20
73937;BMP180;59249;59.736;30.568;2023-11-22T06:21:12;101885.00;;;-5.20
73937;BMP180;59249;59.736;30.568;2023-11-22T06:23:41;101864.00;;;-5.30
73937;BMP180;59249;59.736;30.568;2023-11-22T06:26:10;101880.00;;;-5.20
73937;BMP180;59249;59.736;30.568;2023-11-22T06:28:39;101870.00;;;-5.20
73937;BMP180;59249;59.736;30.568;2023-11-22T06:31:08;101886.00;;;-5.10
73937;BMP180;59249;59.736;30.568;2023-11-22T06:33:36;101881.00;;;-5.10
73937;BMP180;59249;59.736;30.568;2023-11-22T06:36:09;101875.00;;;-5.10
73937;BMP180;59249;59.736;30.568;2023-11-22T06:38:40;101882.00;;;-5.00
73937;BMP180;59249;59.736;30.568;2023-11-22T06:41:09;101870.00;;;-5.10
73937;BMP180;59249;59.736;30.568;2023-11-22T06:43:38;101871.00;;;-5.00
73937;BMP180;59249;59.736;30.568;2023-11-22T06:46:08;101860.00;;;-4.90
73937;BMP180;59249;59.736;30.568;2023-11-22T06:48:36;101863.00;;;-4.90
73937;BMP180;59249;59.736;30.568;2023-11-22T06:51:07;101853.00;;;-4.80
73937;BMP180;59249;59.736;30.568;2023-11-22T06:53:36;101854.00;;;-4.80
73937;BMP180;59249;59.736;30.568;2023-11-22T06:56:05;101843.00;;;-4.80
73937;BMP180;59249;59.736;30.568;2023-11-22T06:58:34;101848.00;;;-4.80
73937;BMP180;59249;59.736;30.568;2023-11-22T07:01:03;101849.00;;;-4.70
73937;BMP180;59249;59.736;30.568;2023-11-22T07:03:32;101852.00;;;-4.70
73937;BMP180;59249;59.736;30.568;2023-11-22T07:06:01;101835.00;;;-4.70
73937;BMP180;59249;59.736;30.568;2023-11-22T07:08:32;101844.00;;;-4.70
73937;BMP180;59249;59.736;30.568;2023-11-22T07:11:03;101846.00;;;-4.70
73937;BMP180;59249;59.736;30.568;2023-11-22T07:13:33;101843.00;;;-4.70
73937;BMP180;59249;59.736;30.568;2023-11-22T07:16:06;101833.00;;;-4.70
73937;BMP180;59249;59.736;30.568;2023-11-22T07:18:36;101842.00;;;-4.80
73937;BMP180;59249;59.736;30.568;2023-11-22T07:21:04;101847.00;;;-4.70
73937;BMP180;59249;59.736;30.568;2023-11-22T07:23:35;101837.00;;;-4.80
73937;BMP180;59249;59.736;30.568;2023-11-22T07:26:04;101835.00;;;-4.80
73937;BMP180;59249;59.736;30.568;2023-11-22T07:28:33;101836.00;;;-4.80
73937;BMP180;59249;59.736;30.568;2023-11-22T07:31:03;101852.00;;;-4.80
73937;BMP180;59249;59.736;30.568;2023-11-22T07:33:36;101842.00;;;-4.80
73937;BMP180;59249;59.736;30.568;2023-11-22T07:36:05;101843.00;;;-4.80
73937;BMP180;59249;59.736;30.568;2023-11-22T07:38:36;101845.00;;;-4.80
73937;BMP180;59249;59.736;30.568;2023-11-22T07:41:08;101840.00;;;-4.80
73937;BMP180;59249;59.736;30.568;2023-11-22T07:43:37;101835.00;;;-4.80
73937;BMP180;59249;59.736;30.568;2023-11-22T07:46:07;101841.00;;;-4.80
73937;BMP180;59249;59.736;30.568;2023-11-22T07:48:41;101840.00;;;-4.80
73937;BMP180;59249;59.736;30.568;2023-11-22T07:51:13;101835.00;;;-4.80
73937;BMP180;59249;59.736;30.568;2023-11-22T07:53:45;101822.00;;;-4.80
73937;BMP180;59249;59.736;30.568;2023-11-22T07:56:14;101815.00;;;-4.70
73937;BMP180;59249;59.736;30.568;2023-11-22T07:58:45;101823.00;;;-4.70
73937;BMP180;59249;59.736;30.568;2023-11-22T08:01:14;101816.00;;;-4.70
73937;BMP180;59249;59.736;30.568;2023-11-22T08:03:43;101814.00;;;-4.70
73937;BMP180;59249;59.736;30.568;2023-11-22T08:06:15;101824.00;;;-4.70
73937;BMP180;59249;59.736;30.568;2023-11-22T08:08:46;101815.00;;;-4.60
73937;BMP180;59249;59.736;30.568;2023-11-22T08:11:15;101817.00;;;-4.70
73937;BMP180;59249;59.736;30.568;2023-11-22T08:13:44;101810.00;;;-4.70
73937;BMP180;59249;59.736;30.568;2023-11-22T08:16:15;101812.00;;;-4.70
73937;BMP180;59249;59.736;30.568;2023-11-22T08:18:44;101816.00;;;-4.80
73937;BMP180;59249;59.736;30.568;2023-11-22T08:21:15;101828.00;;;-4.60
73937;BMP180;59249;59.736;30.568;2023-11-22T08:23:46;101813.00;;;-4.70
73937;BMP180;59249;59.736;30.568;2023-11-22T08:26:15;101809.00;;;-4.70
73937;BMP180;59249;59.736;30.568;2023-11-22T08:28:45;101796.00;;;-4.70
73937;BMP180;59249;59.736;30.568;2023-11-22T08:31:14;101802.00;;;-4.80
73937;BMP180;59249;59.736;30.568;2023-11-22T08:33:44;101803.00;;;-4.70
73937;BMP180;59249;59.736;30.568;2023-11-22T08:36:12;101791.00;;;-4.80
73937;BMP180;59249;59.736;30.568;2023-11-22T08:38:41;101794.00;;;-4.80
73937;BMP180;59249;59.736;30.568;2023-11-22T08:41:12;101786.00;;;-4.80
73937;BMP180;59249;59.736;30.568;2023-11-22T08:43:41;101801.00;;;-4.80
73937;BMP180;59249;59.736;30.568;2023-11-22T08:46:10;101805.00;;;-4.80
73937;BMP180;59249;59.736;30.568;2023-11-22T08:48:41;101793.00;;;-4.70
73937;BMP180;59249;59.736;30.568;2023-11-22T08:51:11;101789.00;;;-4.60
73937;BMP180;59249;59.736;30.568;2023-11-22T08:53:40;101788.00;;;-4.70
73937;BMP180;59249;59.736;30.568;2023-11-22T08:56:13;101784.00;;;-4.70
73937;BMP180;59249;59.736;30.568;2023-11-22T08:58:43;101771.00;;;-4.80
73937;BMP180;59249;59.736;30.568;2023-11-22T09:01:15;101786.00;;;-4.70
73937;BMP180;59249;59.736;30.568;2023-11-22T09:03:44;101781.00;;;-4.70
73937;BMP180;59249;59.736;30.568;2023-11-22T09:06:13;101780.00;;;-4.70
73937;BMP180;59249;59.736;30.568;2023-11-22T09:08:42;101763.00;;;-4.80
73937;BMP180;59249;59.736;30.568;2023-11-22T09:11:15;101776.00;;;-4.90
73937;BMP180;59249;59.736;30.568;2023-11-22T09:13:47;101765.00;;;-4.90
73937;BMP180;59249;59.736;30.568;2023-11-22T09:16:17;101764.00;;;-5.00
73937;BMP180;59249;59.736;30.568;2023-11-22T09:18:47;101764.00;;;-5.00
73937;BMP180;59249;59.736;30.568;2023-11-22T09:21:18;101763.00;;;-4.90
73937;BMP180;59249;59.736;30.568;2023-11-22T09:23:48;101767.00;;;-4.90
73937;BMP180;59249;59.736;30.568;2023-11-22T09:26:18;101772.00;;;-4.80
73937;BMP180;59249;59.736;30.568;2023-11-22T09:28:47;101762.00;;;-4.90
73937;BMP180;59249;59.736;30.568;2023-11-22T09:31:16;101756.00;;;-4.90
73937;BMP180;59249;59.736;30.568;2023-11-22T09:33:48;101750.00;;;-4.90
73937;BMP180;59249;59.736;30.568;2023-11-22T09:36:17;101753.00;;;-4.90
73937;BMP180;59249;59.736;30.568;2023-11-22T09:38:46;101742.00;;;-4.80
73937;BMP180;59249;59.736;30.568;2023-11-22T09:41:14;101748.00;;;-4.90
73937;BMP180;59249;59.736;30.568;2023-11-22T09:43:46;101747.00;;;-4.90
73937;BMP180;59249;59.736;30.568;2023-11-22T09:46:17;101732.00;;;-4.90
73937;BMP180;59249;59.736;30.568;2023-11-22T09:48:47;101739.00;;;-4.90
73937;BMP180;59249;59.736;30.568;2023-11-22T09:51:23;101733.00;;;-4.80
73937;BMP180;59249;59.736;30.568;2023-11-22T09:53:54;101732.00;;;-4.80
73937;BMP180;59249;59.736;30.568;2023-11-22T09:56:26;101732.00;;;-4.80
73937;BMP180;59249;59.736;30.568;2023-11-22T09:58:58;101739.00;;;-4.80
73937;BMP180;59249;59.736;30.568;2023-11-22T10:01:29;101718.00;;;-4.80
73937;BMP180;59249;59.736;30.568;2023-11-22T10:04:01;101725.00;;;-4.70
73937;BMP180;59249;59.736;30.568;2023-11-22T10:06:32;101711.00;;;-4.70
73937;BMP180;59249;59.736;30.568;2023-11-22T10:09:03;101713.00;;;-4.80
73937;BMP180;59249;59.736;30.568;2023-11-22T10:11:36;101714.00;;;-4.70
73937;BMP180;59249;59.736;30.568;2023-11-22T10:14:08;101713.00;;;-4.70
73937;BMP180;59249;59.736;30.568;2023-11-22T10:16:37;101699.00;;;-4.70
73937;BMP180;59249;59.736;30.568;2023-11-22T10:19:06;101701.00;;;-4.70
73937;BMP180;59249;59.736;30.568;2023-11-22T10:21:36;101705.00;;;-4.70
73937;BMP180;59249;59.736;30.568;2023-11-22T10:24:07;101681.00;;;-4.80
73937;BMP180;59249;59.736;30.568;2023-11-22T10:26:37;101694.00;;;-4.80
73937;BMP180;59249;59.736;30.568;2023-11-22T10:29:08;101695.00;;;-4.70
73937;BMP180;59249;59.736;30.568;2023-11-22T10:31:41;101698.00;;;-4.80
73937;BMP180;59249;59.736;30.568;2023-11-22T10:34:12;101684.00;;;-4.80
73937;BMP180;59249;59.736;30.568;2023-11-22T10:36:41;101693.00;;;-4.80
73937;BMP180;59249;59.736;30.568;2023-11-22T10:39:10;101689.00;;;-4.80
73937;BMP180;59249;59.736;30.568;2023-11-22T10:41:45;101690.00;;;-4.70
73937;BMP180;59249;59.736;30.568;2023-11-22T10:44:16;101688.00;;;-4.80
73937;BMP180;59249;59.736;30.568;2023-11-22T10:46:48;101685.00;;;-4.80
73937;BMP180;59249;59.736;30.568;2023-11-22T10:49:20;101685.00;;;-4.80
73937;BMP180;59249;59.736;30.568;2023-11-22T10:51:52;101685.00;;;-4.80
73937;BMP180;59249;59.736;30.568;2023-11-22T10:54:22;101682.00;;;-4.70
73937;BMP180;59249;59.736;30.568;2023-11-22T10:56:55;101678.00;;;-4.70
73937;BMP180;59249;59.736;30.568;2023-11-22T10:59:30;101670.00;;;-4.70
73937;BMP180;59249;59.736;30.568;2023-11-22T11:02:01;101669.00;;;-4.60
73937;BMP180;59249;59.736;30.568;2023-11-22T11:04:41;101675.00;;;-4.60
73937;BMP180;59249;59.736;30.568;2023-11-22T11:07:17;101685.00;;;-4.50
73937;BMP180;59249;59.736;30.568;2023-11-22T11:09:50;101666.00;;;-4.60
73937;BMP180;59249;59.736;30.568;2023-11-22T11:12:20;101669.00;;;-4.50
73937;BMP180;59249;59.736;30.568;2023-11-22T11:14:52;101662.00;;;-4.60
73937;BMP180;59249;59.736;30.568;2023-11-22T11:17:21;101676.00;;;-4.50
73937;BMP180;59249;59.736;30.568;2023-11-22T11:19:51;101659.00;;;-4.40
73937;BMP180;59249;59.736;30.568;2023-11-22T11:22:22;101656.00;;;-4.50
73937;BMP180;59249;59.736;30.568;2023-11-22T11:25:00;101665.00;;;-4.40
73937;BMP180;59249;59.736;30.568;2023-11-22T11:27:35;101652.00;;;-4.50
73937;BMP180;59249;59.736;30.568;2023-11-22T11:33:14;101641.00;;;-4.70
73937;BMP180;59249;59.736;30.568;2023-11-22T11:35:46;101639.00;;;-4.60
73937;BMP180;59249;59.736;30.568;2023-11-22T11:38:19;101634.00;;;-4.60
73937;BMP180;59249;59.736;30.568;2023-11-22T11:40:49;101637.00;;;-4.70
73937;BMP180;59249;59.736;30.568;2023-11-22T11:43:31;101632.00;;;-4.70
73937;BMP180;59249;59.736;30.568;2023-11-22T11:46:11;101642.00;;;-4.60
73937;BMP180;59249;59.736;30.568;2023-11-22T11:48:42;101620.00;;;-4.60
73937;BMP180;59249;59.736;30.568;2023-11-22T11:51:14;101631.00;;;-4.60
73937;BMP180;59249;59.736;30.568;2023-11-22T11:53:46;101620.00;;;-4.60
73937;BMP180;59249;59.736;30.568;2023-11-22T11:56:17;101617.00;;;-4.60
73937;BMP180;59249;59.736;30.568;2023-11-22T11:58:50;101618.00;;;-4.70
73937;BMP180;59249;59.736;30.568;2023-11-22T12:01:20;101608.00;;;-4.60
73937;BMP180;59249;59.736;30.568;2023-11-22T12:03:50;101607.00;;;-4.70
73937;BMP180;59249;59.736;30.568;2023-11-22T12:06:22;101613.00;;;-4.70
73937;BMP180;59249;59.736;30.568;2023-11-22T12:08:51;101605.00;;;-4.80
73937;BMP180;59249;59.736;30.568;2023-11-22T12:11:20;101585.00;;;-4.80
73937;BMP180;59249;59.736;30.568;2023-11-22T12:13:49;101586.00;;;-4.80
73937;BMP180;59249;59.736;30.568;2023-11-22T12:16:23;101578.00;;;-4.80
73937;BMP180;59249;59.736;30.568;2023-11-22T12:18:51;101584.00;;;-4.80
73937;BMP180;59249;59.736;30.568;2023-11-22T12:21:21;101570.00;;;-4.80
73937;BMP180;59249;59.736;30.568;2023-11-22T12:23:50;101564.00;;;-4.80
73937;BMP180;59249;59.736;30.568;2023-11-22T12:26:20;101555.00;;;-4.70
73937;BMP180;59249;59.736;30.568;2023-11-22T12:28:49;101558.00;;;-4.80
73937;BMP180;59249;59.736;30.568;2023-11-22T12:31:33;101561.00;;;-4.80
73937;BMP180;59249;59.736;30.568;2023-11-22T12:34:04;101563.00;;;-4.80
73937;BMP180;59249;59.736;30.568;2023-11-22T12:36:35;101559.00;;;-4.70
73937;BMP180;59249;59.736;30.568;2023-11-22T12:39:07;101556.00;;;-4.80
73937;BMP180;59249;59.736;30.568;2023-11-22T12:41:45;101555.00;;;-4.70
73937;BMP180;59249;59.736;30.568;2023-11-22T12:44:28;101544.00;;;-4.70
73937;BMP180;59249;59.736;30.568;2023-11-22T12:47:02;101547.00;;;-4.70
73937;BMP180;59249;59.736;30.568;2023-11-22T12:49:43;101541.00;;;-4.70
73937;BMP180;59249;59.736;30.568;2023-11-22T12:52:13;101545.00;;;-4.70
73937;BMP180;59249;59.736;30.568;2023-11-22T12:54:44;101540.00;;;-4.70
73937;BMP180;59249;59.736;30.568;2023-11-22T12:57:15;101530.00;;;-4.60
73937;BMP180;59249;59.736;30.568;2023-11-22T12:59:48;101527.00;;;-4.60
73937;BMP180;59249;59.736;30.568;2023-11-22T13:02:19;101528.00;;;-4.70
73937;BMP180;59249;59.736;30.568;2023-11-22T13:04:48;101523.00;;;-4.70
73937;BMP180;59249;59.736;30.568;2023-11-22T13:07:18;101520.00;;;-4.60
73937;BMP180;59249;59.736;30.568;2023-11-22T13:09:47;101529.00;;;-4.70
73937;BMP180;59249;59.736;30.568;2023-11-22T13:12:16;101525.00;;;-4.70
73937;BMP180;59249;59.736;30.568;2023-11-22T13:14:46;101530.00;;;-4.70
73937;BMP180;59249;59.736;30.568;2023-11-22T13:17:19;101522.00;;;-4.70
73937;BMP180;59249;59.736;30.568;2023-11-22T13:19:48;101515.00;;;-4.70
73937;BMP180;59249;59.736;30.568;2023-11-22T13:22:17;101507.00;;;-4.60
73937;BMP180;59249;59.736;30.568;2023-11-22T13:24:46;101505.00;;;-4.70
73937;BMP180;59249;59.736;30.568;2023-11-22T13:27:16;101494.00;;;-4.60
73937;BMP180;59249;59.736;30.568;2023-11-22T13:29:44;101494.00;;;-4.60
73937;BMP180;59249;59.736;30.568;2023-11-22T13:32:13;101494.00;;;-4.50
73937;BMP180;59249;59.736;30.568;2023-11-22T13:34:46;101501.00;;;-4.60
73937;BMP180;59249;59.736;30.568;2023-11-22T13:37:15;101494.00;;;-4.50
73937;BMP180;59249;59.736;30.568;2023-11-22T13:39:45;101502.00;;;-4.60
73937;BMP180;59249;59.736;30.568;2023-11-22T13:42:14;101490.00;;;-4.60
73937;BMP180;59249;59.736;30.568;2023-11-22T13:44:43;101476.00;;;-4.60
73937;BMP180;59249;59.736;30.568;2023-11-22T13:47:13;101483.00;;;-4.60
73937;BMP180;59249;59.736;30.568;2023-11-22T13:49:50;101487.00;;;-4.50
73937;BMP180;59249;59.736;30.568;2023-11-22T13:52:20;101480.00;;;-4.60
73937;BMP180;59249;59.736;30.568;2023-11-22T13:54:50;101473.00;;;-4.60
73937;BMP180;59249;59.736;30.568;2023-11-22T13:57:26;101471.00;;;-4.60
73937;BMP180;59249;59.736;30.568;2023-11-22T13:59:57;101476.00;;;-4.60
73937;BMP180;59249;59.736;30.568;2023-11-22T14:02:26;101468.00;;;-4.60
73937;BMP180;59249;59.736;30.568;2023-11-22T14:04:58;101462.00;;;-4.50